Time;durP1;ratioP1;P1;durP2;ratioP2;P2;SDS_P1;SDS_P2;PMS_P1;PMS_P2;Temp;Humidity;BMP_temperature;BMP_pressure;BME280_temperature;BME280_humidity;BME280_pressure;Samples;Min_cycle;Max_cycle;Signal;HPM_P1;HPM_P2
2022/05/30 00:08:59;;;;;;;1.08;0.90;;;;;;;23.74;38.98;99757.06;20801213;27;96781;-76
2022/05/30 00:18:59;;;;;;;2.55;1.10;;;;;;;23.73;39.10;99747.47;20803926;27;98530;-75
2022/05/30 00:29:00;;;;;;;1.30;1.00;;;;;;;23.74;38.92;99743.84;20804443;27;98137;-75
2022/05/30 00:39:00;;;;;;;1.05;0.90;;;;;;;23.71;39.06;99733.56;20794977;27;97398;-76
2022/05/30 00:49:05;;;;;;;3.65;0.90;;;;;;;23.70;39.11;99710.75;20806782;27;97946;-76
2022/05/30 00:59:07;;;;;;;1.00;0.90;;;;;;;23.70;39.23;99702.00;20806401;27;97559;-75
2022/05/30 01:09:11;;;;;;;2.03;0.70;;;;;;;23.67;38.82;99698.69;20785654;27;97800;-76
2022/05/30 01:19:20;;;;;;;1.05;1.00;;;;;;;23.68;39.03;99702.19;20800801;27;98102;-75
2022/05/30 01:29:29;;;;;;;0.95;0.70;;;;;;;23.66;39.11;99673.22;20799679;27;97575;-75
2022/05/30 01:39:29;;;;;;;0.95;0.80;;;;;;;23.64;39.17;99677.00;20804745;27;100031;-76
2022/05/30 01:49:30;;;;;;;1.25;0.98;;;;;;;23.66;39.00;99682.97;20806239;27;100641;-76
2022/05/30 01:59:30;;;;;;;0.98;0.85;;;;;;;23.63;39.15;99680.63;20795621;27;99202;-76
2022/05/30 02:09:32;;;;;;;0.98;0.75;;;;;;;23.61;38.95;99678.16;20798050;27;98623;-75
2022/05/30 02:19:35;;;;;;;0.88;0.57;;;;;;;23.61;39.00;99680.78;20796986;27;102420;-76
2022/05/30 02:29:36;;;;;;;5.75;0.88;;;;;;;23.61;38.81;99687.91;20796934;27;98946;-76
2022/05/30 02:39:37;;;;;;;0.80;0.70;;;;;;;23.60;38.86;99691.53;20792491;27;98272;-76
2022/05/30 02:49:37;;;;;;;1.40;0.80;;;;;;;23.57;38.86;99697.94;20801508;27;97523;-75
2022/05/30 02:59:38;;;;;;;0.80;0.70;;;;;;;23.56;38.85;99716.56;20800365;27;97252;-74
2022/05/30 03:09:38;;;;;;;0.75;0.70;;;;;;;23.55;38.99;99725.50;20789536;27;98234;-74
2022/05/30 03:19:39;;;;;;;1.13;0.90;;;;;;;23.54;38.92;99737.06;20797007;27;97103;-74
2022/05/30 03:29:39;;;;;;;0.60;0.55;;;;;;;23.54;38.92;99747.63;20779670;27;97088;-75
2022/05/30 03:39:40;;;;;;;0.70;0.60;;;;;;;23.53;38.96;99756.53;20796358;27;97097;-75
2022/05/30 03:49:41;;;;;;;0.65;0.63;;;;;;;23.53;38.73;99745.97;20790406;27;97197;-76
2022/05/30 03:59:42;;;;;;;0.70;0.70;;;;;;;23.52;38.73;99746.94;20781619;27;98174;-76
2022/05/30 04:09:43;;;;;;;1.30;0.77;;;;;;;23.52;38.88;99745.09;20777485;27;97118;-75
2022/05/30 04:19:43;;;;;;;4.68;0.93;;;;;;;23.52;39.12;99749.56;20768738;27;99861;-75
2022/05/30 04:29:44;;;;;;;1.58;0.70;;;;;;;23.54;39.56;99756.38;20792712;27;99650;-75
2022/05/30 04:39:44;;;;;;;16.13;2.50;;;;;;;23.54;39.28;99761.66;20788370;27;97071;-81
2022/05/30 04:49:47;;;;;;;4.47;1.40;;;;;;;22.97;35.15;99783.78;20798054;27;97135;-78
2022/05/30 04:59:49;;;;;;;2.78;1.33;;;;;;;22.70;35.40;99787.19;20776303;27;97854;-78
2022/05/30 05:09:55;;;;;;;1.80;1.23;;;;;;;22.66;36.44;99775.25;20773450;27;97474;-78
2022/05/30 05:19:55;;;;;;;4.00;1.33;;;;;;;22.94;37.06;99797.25;20799375;27;100055;-78
2022/05/30 05:29:56;;;;;;;11.57;1.53;;;;;;;22.98;37.34;99797.78;20777157;27;97602;-78
2022/05/30 05:39:56;;;;;;;7.17;1.30;;;;;;;23.10;37.16;99816.94;20787464;27;97636;-78
2022/05/30 05:49:57;;;;;;;4.03;1.40;;;;;;;23.14;37.38;99819.16;20783828;27;98663;-78
2022/05/30 05:59:58;;;;;;;4.75;1.20;;;;;;;23.19;37.51;99821.34;20797098;27;97879;-77
2022/05/30 06:09:58;;;;;;;3.10;1.20;;;;;;;23.23;37.56;99830.66;20791390;27;99466;-78
2022/05/30 06:19:59;;;;;;;3.55;1.10;;;;;;;23.27;37.56;99837.31;20778650;27;96961;-75
2022/05/30 06:30:01;;;;;;;3.95;1.13;;;;;;;23.30;37.72;99830.91;20795705;27;97150;-75
2022/05/30 06:40:03;;;;;;;5.27;1.07;;;;;;;23.25;37.17;99844.53;20791842;27;97710;-75
2022/05/30 06:50:04;;;;;;;1.63;1.10;;;;;;;23.30;37.41;99849.41;20791025;27;98006;-75
2022/05/30 07:00:06;;;;;;;0.90;0.90;;;;;;;23.31;37.33;99857.19;20780150;27;99652;-74
2022/05/30 07:10:08;;;;;;;3.20;1.03;;;;;;;23.34;37.49;99856.88;20789951;27;100607;-75
2022/05/30 07:20:09;;;;;;;;;;;;;;;23.37;37.36;99858.41;20769963;27;100814;-75
2022/05/30 07:30:10;;;;;;;1.55;1.13;;;;;;;23.39;37.70;99851.16;20765603;27;98555;-74
2022/05/30 07:40:12;;;;;;;1.92;1.02;;;;;;;23.38;37.81;99857.44;20756162;27;99305;-77
2022/05/30 07:50:12;;;;;;;3.73;1.13;;;;;;;23.38;36.99;99856.59;20771666;27;98108;-76
2022/05/30 08:00:14;;;;;;;1.83;1.20;;;;;;;23.37;36.01;99868.16;20786322;27;97921;-76
2022/05/30 08:10:16;;;;;;;3.43;1.00;;;;;;;23.38;35.15;99859.25;20786580;27;98431;-77
2022/05/30 08:20:17;;;;;;;2.00;0.90;;;;;;;23.37;34.29;99876.06;20776745;27;98932;-78
2022/05/30 08:30:19;;;;;;;1.05;0.93;;;;;;;23.37;34.25;99876.91;20783291;27;99501;-78
2022/05/30 08:51:02;;;;;;;;;;;;;;;23.47;34.98;99872.41;20792636;27;97334;-77
2022/05/30 09:01:14;;;;;;;1.08;0.93;;;;;;;23.52;34.83;99879.88;20781002;27;99219;-77
2022/05/30 09:11:32;;;;;;;2.28;1.00;;;;;;;23.57;34.62;99897.94;20808796;27;97454;-76
2022/05/30 09:21:33;;;;;;;1.52;1.05;;;;;;;23.63;35.06;99894.72;20782721;27;97275;-77
2022/05/30 09:31:52;;;;;;;5.85;1.20;;;;;;;23.68;35.23;99889.84;20800168;27;99458;-76
2022/05/30 09:42:01;;;;;;;3.08;1.08;;;;;;;23.69;34.79;99903.88;20798184;27;100173;-76
2022/05/30 09:52:19;;;;;;;6.10;1.20;;;;;;;23.70;34.63;99906.38;20814680;27;96961;-76
2022/05/30 10:02:29;;;;;;;2.95;1.13;;;;;;;23.72;34.74;99907.06;20793204;27;97976;-76
2022/05/30 10:12:33;;;;;;;2.60;1.20;;;;;;;23.76;34.81;99920.81;20800054;27;99018;-76
2022/05/30 10:33:08;;;;;;;5.13;1.58;;;;;;;23.82;35.50;99922.88;20795371;27;98811;-81
2022/05/30 10:43:35;;;;;;;2.97;1.48;;;;;;;23.89;35.73;99923.94;20789513;27;97712;-80
2022/05/30 10:53:57;;;;;;;4.63;2.25;;;;;;;23.89;35.64;99936.31;20769155;27;97525;-79
2022/05/30 11:04:21;;;;;;;3.00;1.40;;;;;;;23.44;34.79;99927.38;20769689;27;98461;-77
2022/05/30 11:14:46;;;;;;;3.40;1.30;;;;;;;23.27;33.91;99948.25;20794299;27;97905;-76
2022/05/30 11:24:51;;;;;;;5.38;1.50;;;;;;;23.44;34.07;99959.88;20794410;27;97304;-76
2022/05/30 11:35:21;;;;;;;2.42;1.48;;;;;;;23.33;34.02;99957.44;20773569;27;97579;-76
2022/05/30 11:45:40;;;;;;;2.92;1.50;;;;;;;23.28;33.85;99964.97;20788231;27;97202;-75
2022/05/30 11:55:56;;;;;;;4.22;1.20;;;;;;;23.21;33.65;99958.56;20800620;27;97275;-76
2022/05/30 12:06:09;;;;;;;1.50;1.13;;;;;;;23.37;34.49;99956.16;20780996;27;98362;-75
2022/05/30 12:16:16;;;;;;;6.38;1.45;;;;;;;23.54;36.90;99948.47;20814419;27;99798;-75
2022/05/30 12:26:56;;;;;;;3.13;1.38;;;;;;;23.61;38.13;99958.28;20799602;27;98088;-76
2022/05/30 12:36:58;;;;;;;6.47;1.23;;;;;;;23.65;37.28;99957.03;20802161;27;97026;-76
2022/05/30 12:47:09;;;;;;;3.33;1.20;;;;;;;23.69;35.95;99949.63;20815695;27;98004;-75
2022/05/30 12:57:31;;;;;;;6.83;1.30;;;;;;;23.71;35.82;99944.22;20778628;27;97425;-75
2022/05/30 13:07:31;;;;;;;4.35;1.15;;;;;;;23.71;35.34;99944.22;20795361;27;98848;-79
2022/05/30 13:17:57;;;;;;;4.10;1.50;;;;;;;23.69;35.28;99940.88;20796483;27;96977;-80
2022/05/30 13:28:10;;;;;;;7.05;1.40;;;;;;;23.67;34.56;99943.69;20802063;27;97601;-78
2022/05/30 13:38:14;;;;;;;14.23;2.42;;;;;;;23.66;34.43;99949.94;20789450;27;97236;-77
2022/05/30 13:48:17;;;;;;;17.05;2.67;;;;;;;23.66;34.17;99965.81;20781379;27;98478;-77
2022/05/30 13:58:18;;;;;;;6.68;1.60;;;;;;;23.67;33.98;99970.13;20805377;27;97741;-77
2022/05/30 14:08:30;;;;;;;4.47;1.35;;;;;;;23.66;34.01;99956.03;20797322;27;97059;-77
2022/05/30 14:18:44;;;;;;;3.57;1.60;;;;;;;23.67;33.94;99973.56;20791041;27;97454;-77
2022/05/30 14:28:59;;;;;;;3.28;1.42;;;;;;;23.74;34.46;99987.06;20793241;27;97475;-77
2022/05/30 14:39:08;;;;;;;2.47;1.42;;;;;;;22.69;37.35;99986.94;20791054;27;99000;-78
2022/05/30 14:49:15;;;;;;;1.90;1.08;;;;;;;23.34;36.25;99988.97;20789735;27;99209;-78
2022/05/30 14:59:45;;;;;;;2.33;1.23;;;;;;;23.50;36.74;99987.56;20799504;27;98826;-80
2022/05/30 15:09:49;;;;;;;3.92;1.65;;;;;;;23.55;37.19;99984.50;20766509;27;98275;-80
2022/05/30 15:19:53;;;;;;;3.22;1.50;;;;;;;23.61;37.23;99986.56;20810674;27;97764;-79
2022/05/30 15:29:53;;;;;;;3.75;1.73;;;;;;;23.71;37.26;99983.88;20802655;27;97689;-79
2022/05/30 15:39:54;;;;;;;4.40;1.45;;;;;;;23.89;36.95;99986.56;20781737;27;97120;-79
2022/05/30 15:49:55;;;;;;;3.72;1.27;;;;;;;23.98;37.03;99994.47;20765435;27;97625;-78
2022/05/30 15:59:57;;;;;;;2.55;1.35;;;;;;;24.09;36.35;99998.72;20777794;27;99049;-79
2022/05/30 16:10:01;;;;;;;7.70;1.30;;;;;;;24.06;36.68;99995.53;20803814;27;97188;-80
2022/05/30 16:20:07;;;;;;;5.32;1.20;;;;;;;24.07;36.66;100008.66;20782899;27;98184;-78
2022/05/30 16:30:08;;;;;;;3.33;1.00;;;;;;;24.12;36.53;100010.81;20776398;27;97931;-80
2022/05/30 16:40:15;;;;;;;6.50;1.00;;;;;;;24.19;36.34;100019.03;20817836;27;99054;-82
2022/05/30 16:50:17;;;;;;;4.75;1.30;;;;;;;24.25;36.05;100026.38;20798653;27;97235;-81
2022/05/30 17:00:18;;;;;;;1.83;1.00;;;;;;;24.31;35.72;100028.41;20799943;27;98115;-80
2022/05/30 17:10:19;;;;;;;4.03;1.15;;;;;;;24.29;35.61;100036.50;20784527;27;98321;-79
2022/05/30 17:20:44;;;;;;;6.27;1.57;;;;;;;24.34;35.75;100025.50;20781362;27;98162;-78
2022/05/30 17:30:45;;;;;;;15.82;1.85;;;;;;;24.40;37.24;100032.81;20772683;27;97744;-78
2022/05/30 17:40:46;;;;;;;5.03;1.63;;;;;;;24.43;38.87;100042.28;20787484;27;98293;-78
2022/05/30 17:51:08;;;;;;;3.92;1.27;;;;;;;24.41;38.24;100044.22;20764954;27;98307;-77
2022/05/30 18:01:09;;;;;;;3.67;1.42;;;;;;;24.39;37.47;100046.19;20778165;27;100155;-76
2022/05/30 18:11:15;;;;;;;4.05;1.42;;;;;;;24.39;37.98;100062.06;20794596;27;98070;-80
2022/05/30 18:21:22;;;;;;;5.97;1.20;;;;;;;24.38;38.23;100068.38;20761534;27;98480;-78
2022/05/30 18:31:28;;;;;;;4.22;1.30;;;;;;;24.36;38.36;100089.66;20799298;27;97748;-77
2022/05/30 18:41:46;;;;;;;7.28;1.60;;;;;;;24.24;37.83;100090.84;20778541;27;97480;-76
2022/05/30 18:51:47;;;;;;;6.70;1.20;;;;;;;24.20;37.72;100106.16;20779103;27;97064;-76
2022/05/30 19:01:51;;;;;;;2.67;1.20;;;;;;;24.17;37.63;100124.13;20765372;27;97661;-77
2022/05/30 19:12:03;;;;;;;4.25;1.23;;;;;;;24.14;38.08;100136.69;20769168;27;97741;-75
2022/05/30 19:22:03;;;;;;;2.30;1.25;;;;;;;24.08;38.63;100168.16;20769242;27;101335;-76
2022/05/30 19:32:06;;;;;;;6.27;1.63;;;;;;;24.03;38.72;100165.13;20797109;27;97115;-78
2022/05/30 19:42:11;;;;;;;4.30;1.60;;;;;;;23.98;38.89;100170.84;20787413;27;98898;-76
2022/05/30 19:52:11;;;;;;;5.18;1.50;;;;;;;23.96;39.10;100176.28;20776539;27;97282;-76
2022/05/30 20:02:11;;;;;;;3.75;1.48;;;;;;;23.93;39.19;100191.59;20762031;27;100364;-76
2022/05/30 20:12:12;;;;;;;4.03;1.25;;;;;;;23.90;39.40;100197.97;20757234;27;98346;-76
2022/05/30 20:22:15;;;;;;;3.03;1.30;;;;;;;23.88;39.02;100197.25;20764956;27;99332;-75
2022/05/30 20:32:16;;;;;;;;;;;;;;;23.87;39.50;100216.75;20766930;27;97859;-76
2022/05/30 20:52:38;;;;;;;2.03;1.30;;;;;;;23.85;39.70;100223.16;20759867;27;99487;-77
2022/05/30 21:02:39;;;;;;;;;;;;;;;23.85;39.62;100225.81;20745603;27;102066;-77
2022/05/30 21:12:40;;;;;;;1.30;1.20;;;;;;;23.82;39.78;100233.03;20727672;27;101445;-76
2022/05/30 21:22:45;;;;;;;2.60;1.40;;;;;;;23.82;39.70;100234.84;20792806;27;97124;-77
2022/05/30 21:32:56;;;;;;;2.40;1.30;;;;;;;23.82;40.20;100250.72;20787109;27;98304;-76
2022/05/30 21:42:57;;;;;;;2.20;1.37;;;;;;;23.81;40.06;100257.81;20777091;27;97187;-77
2022/05/30 21:53:03;;;;;;;4.88;1.20;;;;;;;23.80;40.20;100260.59;20767405;27;98673;-76
2022/05/30 22:14:00;;;;;;;1.73;1.13;;;;;;;23.76;40.47;100241.53;20750077;27;98675;-76
2022/05/30 22:24:01;;;;;;;1.30;1.13;;;;;;;23.75;40.67;100242.50;20765330;27;97170;-76
2022/05/30 22:34:02;;;;;;;1.40;1.13;;;;;;;23.76;40.42;100251.28;20767393;27;100226;-76
2022/05/30 22:44:02;;;;;;;2.13;1.20;;;;;;;23.73;40.59;100252.38;20753440;27;98722;-76
2022/05/30 22:54:04;;;;;;;2.08;1.20;;;;;;;23.73;40.53;100264.75;20771400;27;100426;-75
2022/05/30 23:04:04;;;;;;;1.27;1.17;;;;;;;23.72;40.39;100263.13;20759897;27;97843;-74
2022/05/30 23:14:19;;;;;;;2.45;1.00;;;;;;;23.69;40.53;100266.84;20733057;27;99084;-76
2022/05/30 23:24:20;;;;;;;1.65;1.25;;;;;;;23.68;40.64;100275.78;20777045;27;98072;-74
2022/05/30 23:34:20;;;;;;;1.83;1.30;;;;;;;23.65;40.59;100271.56;20774080;27;100626;-76
2022/05/30 23:44:36;;;;;;;2.38;1.25;;;;;;;23.65;40.75;100273.38;20693947;27;99833;-77
2022/05/30 23:54:38;;;;;;;1.73;1.23;;;;;;;23.66;40.90;100272.41;20741937;27;100533;-75
